KAFW/AFW METAR and TAF weather

Enter ICAO airport designator
Station Type Date Time Source
KAFW METAR 2020/09/22 08:24 UTC NOAA

KAFW 220824Z 03004KT 2 1/2SM -RA BR BKN004 BKN009 OVC012 19/18 A3006 RMK AO2 RAB20 P0000 T01890178


Station Type Date Time Source
KAFW Decoded METAR 2020/09/22 08:24 UTC NOAA

FORT WORTH ALLIANCE AIRPORT, TX, United States (KAFW) 32-59N 097-19W 233M
Sep 22, 2020 - 04:24 AM EDT / 2020.09.22 0824 UTC
Wind: from the NNE (030 degrees) at 5 MPH (4 KT):0
Visibility: 2 1/2 mile(s):0
Sky conditions: overcast
Weather: light rain; mist
Precipitation last hour: A trace
Temperature: 66.0 F (18.9 C)
Dew Point: 64.0 F (17.8 C)
Relative Humidity: 93%
Pressure (altimeter): 30.06 in. Hg (1017 hPa)
ob: KAFW 220824Z 03004KT 2 1/2SM -RA BR BKN004 BKN009 OVC012 19/18 A3006 RMK AO2 RAB20 P0000 T01890178
cycle: 8

Station Type Date Time Source
KAFW TAF 2020/09/22 08:27 UTC NOAA

TAF
AMD KAFW 220824Z 2208/2306 07010KT 6SM BR VCSH OVC005
TEMPO 2208/2212 2SM SHRA BR OVC004
FM221800 05009KT P6SM VCSH OVC012
FM230100 05010KT 4SM BR OVC007

Example: see airport list